Time;durP1;ratioP1;P1;durP2;ratioP2;P2;SDS_P1;SDS_P2;PMS_P1;PMS_P2;Temp;Humidity;BMP_temperature;BMP_pressure;BME280_temperature;BME280_humidity;BME280_pressure;Samples;Min_cycle;Max_cycle;Signal;HPM_P1;HPM_P2
2024/01/23 00:01:13;;;;;;;4.10;1.23;;;;;;;-145.69;63.78;52343.38;5134516;27;20655;-79
2024/01/23 00:03:39;;;;;;;7.63;1.20;;;;;;;-145.69;63.49;52293.88;5134287;27;20196;-80
2024/01/23 00:06:06;;;;;;;6.73;2.03;;;;;;;-145.69;63.77;52293.88;5134011;27;21355;-80
2024/01/23 00:08:33;;;;;;;4.03;1.43;;;;;;;-145.69;64.18;52303.78;5134806;27;20200;-80
2024/01/23 00:10:59;;;;;;;4.70;1.37;;;;;;;-145.69;63.76;52309.72;5134597;27;20224;-80
2024/01/23 00:13:27;;;;;;;4.50;1.40;;;;;;;-145.69;64.73;52309.72;5134490;27;20207;-80
2024/01/23 00:15:53;;;;;;;5.63;1.40;;;;;;;-145.69;63.74;52325.56;5134157;27;20197;-81
2024/01/23 00:18:20;;;;;;;3.03;1.40;;;;;;;-145.69;64.08;52363.19;5134630;27;20196;-80
2024/01/23 00:20:46;;;;;;;5.27;1.37;;;;;;;-145.69;63.99;52343.38;5134087;27;20206;-82
2024/01/23 00:23:13;;;;;;;0.90;0.90;;;;;;;-145.69;64.16;52309.72;5133850;27;20215;-81
2024/01/23 00:25:39;;;;;;;5.77;1.40;;;;;;;-145.69;64.75;52303.78;5133799;27;20204;-80
2024/01/23 00:28:07;;;;;;;3.27;1.30;;;;;;;-145.69;64.16;52331.50;5129886;27;20204;-82
2024/01/23 00:30:34;;;;;;;5.40;1.30;;;;;;;-145.69;64.81;52355.28;5134102;27;20215;-80
2024/01/23 00:33:01;;;;;;;5.97;1.63;;;;;;;-145.69;64.74;52329.53;5133956;27;20540;-81
2024/01/23 00:35:28;;;;;;;7.07;1.50;;;;;;;-145.69;63.63;52345.38;5134046;27;20520;-80
2024/01/23 00:37:54;;;;;;;1.70;1.20;;;;;;;-145.69;63.50;52341.41;5133443;27;20189;-80
2024/01/23 00:40:21;;;;;;;3.73;1.00;;;;;;;-145.69;63.04;52317.66;5133813;27;20200;-82
2024/01/23 00:42:47;;;;;;;6.23;1.30;;;;;;;-145.69;63.23;52335.47;5134265;27;20193;-81
2024/01/23 00:45:14;;;;;;;6.10;1.07;;;;;;;-145.69;62.81;52313.69;5133333;27;20196;-81
2024/01/23 00:47:41;;;;;;;4.83;1.30;;;;;;;-145.69;62.22;52309.72;5133663;27;20605;-80
2024/01/23 00:50:08;;;;;;;3.83;1.30;;;;;;;-145.69;61.40;52313.69;5133964;27;20204;-80
2024/01/23 00:52:34;;;;;;;6.73;1.50;;;;;;;-145.69;61.01;52325.56;5133801;27;20247;-81
2024/01/23 00:55:03;;;;;;;3.80;1.10;;;;;;;-145.69;59.51;52303.78;5133566;27;20196;-82
2024/01/23 00:57:29;;;;;;;4.03;1.20;;;;;;;-145.69;60.18;52333.47;5133618;27;20193;-80
2024/01/23 00:59:56;;;;;;;5.30;1.20;;;;;;;-145.69;60.31;52309.72;5132938;27;20205;-80
2024/01/23 01:02:22;;;;;;;2.57;0.90;;;;;;;-145.69;59.81;52329.53;5133690;27;20201;-81
2024/01/23 01:04:50;;;;;;;5.17;1.00;;;;;;;-145.69;59.53;52313.69;5133927;27;20207;-79
2024/01/23 01:07:17;;;;;;;2.87;0.83;;;;;;;-145.69;59.88;52291.91;5133060;27;20196;-81
2024/01/23 01:09:43;;;;;;;4.50;1.27;;;;;;;-145.69;60.18;52301.81;5133286;27;20203;-79
2024/01/23 01:12:09;;;;;;;4.80;1.43;;;;;;;-145.69;59.77;52305.75;5133424;27;20224;-79
2024/01/23 01:14:37;;;;;;;2.90;0.90;;;;;;;-145.69;59.83;52339.44;5133413;27;20207;-79
2024/01/23 01:17:04;;;;;;;2.57;0.97;;;;;;;-145.69;59.56;52289.91;5133731;28;20199;-79
2024/01/23 01:19:30;;;;;;;4.33;1.10;;;;;;;-145.69;59.60;52305.75;5133512;28;20200;-81
2024/01/23 01:21:58;;;;;;;2.40;1.13;;;;;;;-145.69;59.33;52317.66;5133049;28;20536;-80
2024/01/23 01:24:24;;;;;;;10.70;3.00;;;;;;;-145.69;59.24;52331.50;5132963;28;20193;-79
2024/01/23 01:26:51;;;;;;;5.87;1.03;;;;;;;-145.69;60.49;52280.00;5133333;28;20197;-80
2024/01/23 01:29:17;;;;;;;6.60;1.73;;;;;;;-145.69;61.64;52278.03;5133279;27;20192;-79
2024/01/23 01:31:43;;;;;;;6.20;1.10;;;;;;;-145.69;63.74;52331.50;5133304;27;20608;-80
2024/01/23 01:34:10;;;;;;;7.27;1.40;;;;;;;-145.69;64.18;52299.81;5133436;27;20205;-81
2024/01/23 01:36:36;;;;;;;7.67;1.30;;;;;;;-145.69;64.59;52297.84;5133129;28;20212;-80
2024/01/23 01:39:04;;;;;;;4.80;1.50;;;;;;;-145.69;64.71;52282.00;5133119;28;20657;-80
2024/01/23 01:41:30;;;;;;;4.10;1.17;;;;;;;-145.69;65.48;52337.44;5133363;27;20208;-80
2024/01/23 01:43:57;;;;;;;4.70;1.27;;;;;;;-145.69;65.83;52329.53;5132949;27;20203;-80
2024/01/23 01:46:26;;;;;;;5.20;1.10;;;;;;;-145.69;65.34;52351.31;5131762;27;20200;-80
2024/01/23 01:48:53;;;;;;;6.63;1.10;;;;;;;-145.69;65.68;52335.47;5133511;27;20238;-80
2024/01/23 01:51:22;;;;;;;3.27;1.80;;;;;;;-145.69;65.66;52321.59;5133157;27;20698;-80
2024/01/23 01:53:49;;;;;;;7.00;1.30;;;;;;;-145.69;65.65;52329.53;5130957;27;20197;-81
2024/01/23 01:56:18;;;;;;;9.77;1.87;;;;;;;-145.69;65.48;52293.88;5125296;28;20197;-81
2024/01/23 01:58:46;;;;;;;3.53;1.40;;;;;;;-145.69;66.46;52319.63;5112698;28;20201;-81
2024/01/23 02:01:13;;;;;;;5.70;1.47;;;;;;;-145.69;66.52;52331.50;5112753;28;20236;-82
2024/01/23 02:03:40;;;;;;;5.37;1.30;;;;;;;-145.69;67.08;52289.91;5130287;27;20201;-81
2024/01/23 02:06:08;;;;;;;2.87;1.20;;;;;;;-145.69;66.71;52305.75;5133069;28;20575;-80
2024/01/23 02:08:36;;;;;;;5.67;1.30;;;;;;;-145.69;67.09;52349.31;5132969;27;20280;-80
2024/01/23 02:11:03;;;;;;;9.63;1.70;;;;;;;-145.69;66.75;52357.25;5134947;27;20697;-80
2024/01/23 02:13:31;;;;;;;2.37;1.30;;;;;;;-145.69;66.50;52315.66;5137088;27;20228;-80
2024/01/23 02:15:57;;;;;;;9.80;1.90;;;;;;;-145.69;65.78;52333.47;5137109;27;20196;-80
2024/01/23 02:18:24;;;;;;;6.67;1.43;;;;;;;-145.69;65.47;52317.66;5136623;27;20197;-80
2024/01/23 02:20:50;;;;;;;4.10;1.60;;;;;;;-145.69;65.49;52317.66;5136587;27;20204;-80
2024/01/23 02:23:17;;;;;;;9.23;1.40;;;;;;;-145.69;64.99;52343.38;5136661;27;20200;-80
2024/01/23 02:25:45;;;;;;;8.67;1.67;;;;;;;-145.69;64.97;52317.66;5136045;27;20647;-80
2024/01/23 02:28:12;;;;;;;5.30;1.87;;;;;;;-145.69;64.19;52305.75;5136910;27;20201;-81
2024/01/23 02:30:39;;;;;;;8.67;1.60;;;;;;;-145.69;63.56;52282.00;5136634;27;20204;-80
2024/01/23 02:33:06;;;;;;;5.80;1.47;;;;;;;-145.69;63.89;52319.63;5135008;27;20266;-80
2024/01/23 02:35:33;;;;;;;6.87;1.53;;;;;;;-145.69;63.33;52347.34;5136097;27;20208;-80
2024/01/23 02:38:00;;;;;;;8.57;1.30;;;;;;;-145.69;62.67;52309.72;5136448;27;20207;-81
2024/01/23 02:40:26;;;;;;;7.93;1.80;;;;;;;-145.69;62.68;52347.34;5136362;27;20205;-81
2024/01/23 02:42:54;;;;;;;8.87;1.60;;;;;;;-145.69;63.47;52321.59;5136352;27;20234;-81
2024/01/23 02:45:21;;;;;;;10.63;1.20;;;;;;;-145.69;63.47;52339.44;5136396;27;20196;-81
2024/01/23 02:47:47;;;;;;;12.87;1.93;;;;;;;-145.69;63.82;52329.53;5135964;27;20228;-83
2024/01/23 02:50:14;;;;;;;7.97;1.30;;;;;;;-145.69;64.28;52343.38;5136070;27;20559;-82
2024/01/23 02:52:40;;;;;;;7.97;1.30;;;;;;;-145.69;64.08;52345.38;5135985;27;20228;-81
2024/01/23 02:55:08;;;;;;;5.37;1.50;;;;;;;-145.69;63.97;52309.72;5136118;27;20196;-79
2024/01/23 02:57:34;;;;;;;6.33;1.43;;;;;;;-145.69;63.56;52315.66;5135758;27;20196;-81
2024/01/23 03:00:02;;;;;;;9.93;1.57;;;;;;;-145.69;63.87;52333.47;5135994;27;20223;-81
2024/01/23 03:02:28;;;;;;;6.80;1.57;;;;;;;-145.69;64.56;52309.72;5135844;27;20189;-81
2024/01/23 03:04:55;;;;;;;11.17;1.90;;;;;;;-145.69;64.58;52309.72;5135831;27;20216;-81
2024/01/23 03:07:21;;;;;;;5.60;1.30;;;;;;;-145.69;63.94;52325.56;5135565;27;20199;-81
2024/01/23 03:09:48;;;;;;;8.87;1.90;;;;;;;-145.69;64.29;52321.59;5135679;27;20209;-81
2024/01/23 03:12:16;;;;;;;5.97;1.50;;;;;;;-145.69;63.59;52353.28;5135090;27;20220;-81
2024/01/23 03:14:43;;;;;;;12.50;1.77;;;;;;;-145.69;63.74;52317.66;5135943;27;20239;-81
2024/01/23 03:17:11;;;;;;;6.13;1.20;;;;;;;-145.69;62.54;52337.44;5135476;27;20197;-80
2024/01/23 03:19:37;;;;;;;7.93;1.13;;;;;;;-145.69;62.59;52309.72;5135550;27;20200;-80
2024/01/23 03:22:05;;;;;;;7.90;1.80;;;;;;;-145.69;61.59;52297.84;5135184;27;20200;-80
2024/01/23 03:24:31;;;;;;;15.40;1.77;;;;;;;-145.69;61.90;52373.09;5135981;27;20284;-81
2024/01/23 03:26:58;;;;;;;6.80;1.67;;;;;;;-145.69;61.25;52327.53;5135523;27;20201;-79
2024/01/23 03:29:25;;;;;;;7.70;1.50;;;;;;;-145.69;61.48;52309.72;5134704;27;20440;-80
2024/01/23 03:31:52;;;;;;;10.87;1.37;;;;;;;-145.69;60.39;52313.69;5135325;27;20220;-80
2024/01/23 03:34:21;;;;;;;6.63;1.63;;;;;;;-145.69;59.82;52287.94;5135291;27;20197;-79
2024/01/23 03:36:48;;;;;;;4.17;1.47;;;;;;;-145.69;59.61;52319.63;5135241;27;20262;-79
2024/01/23 03:39:14;;;;;;;9.17;1.30;;;;;;;-145.69;59.48;52297.84;5135392;27;20589;-79
2024/01/23 03:41:41;;;;;;;7.37;1.43;;;;;;;-145.69;58.75;52325.56;5134878;27;20219;-80
2024/01/23 03:44:07;;;;;;;6.67;1.57;;;;;;;-145.69;59.19;52329.53;5135359;27;20207;-80
2024/01/23 03:46:33;;;;;;;9.40;1.40;;;;;;;-145.69;59.04;52305.75;5134620;27;20189;-82
2024/01/23 03:49:00;;;;;;;7.07;1.70;;;;;;;-145.69;59.06;52331.50;5135043;27;20718;-81
2024/01/23 03:51:28;;;;;;;2.37;1.10;;;;;;;-145.69;59.24;52329.53;5135324;27;20232;-80
2024/01/23 03:53:54;;;;;;;3.43;1.30;;;;;;;-145.69;58.45;52335.47;5134931;27;20227;-81
2024/01/23 03:56:22;;;;;;;8.57;1.40;;;;;;;-145.69;58.68;52297.84;5134565;27;20192;-81
2024/01/23 03:58:48;;;;;;;7.17;1.47;;;;;;;-145.69;58.93;52331.50;5134986;27;20555;-80
2024/01/23 04:01:15;;;;;;;4.47;1.00;;;;;;;-145.69;58.73;52357.25;5134828;27;20200;-80
2024/01/23 04:03:41;;;;;;;10.27;2.10;;;;;;;-145.69;58.58;52301.81;5134699;27;20200;-81
2024/01/23 04:06:07;;;;;;;10.93;1.60;;;;;;;-145.69;59.25;52309.72;5134008;27;20249;-81
2024/01/23 04:08:35;;;;;;;5.77;1.70;;;;;;;-145.69;59.26;52325.56;5119773;27;20197;-80
2024/01/23 04:11:02;;;;;;;8.73;1.33;;;;;;;-145.69;58.94;52319.63;5113742;28;20197;-80
2024/01/23 04:13:28;;;;;;;10.60;1.73;;;;;;;-145.69;58.71;52313.69;5114867;27;20702;-80
2024/01/23 04:15:54;;;;;;;6.30;1.67;;;;;;;-145.69;58.57;52339.44;5134512;27;20246;-80
2024/01/23 04:18:21;;;;;;;9.83;1.70;;;;;;;-145.69;58.81;52293.88;5134502;27;20196;-80
2024/01/23 04:20:47;;;;;;;7.70;1.77;;;;;;;-145.69;58.62;52325.56;5134657;27;20192;-82
2024/01/23 04:23:14;;;;;;;4.90;1.20;;;;;;;-145.69;58.36;52319.63;5134281;27;20597;-81
2024/01/23 04:25:42;;;;;;;8.40;1.73;;;;;;;-145.69;58.43;52337.44;5134113;27;20203;-81
2024/01/23 04:28:08;;;;;;;7.97;1.53;;;;;;;-145.69;58.68;52297.84;5134270;27;20200;-81
2024/01/23 04:30:35;;;;;;;7.10;1.20;;;;;;;-145.69;58.91;52315.66;5134158;27;20200;-81
2024/01/23 04:33:01;;;;;;;8.03;1.37;;;;;;;-145.69;58.62;52325.56;5134281;27;20224;-80
2024/01/23 04:35:28;;;;;;;10.00;1.77;;;;;;;-145.69;59.40;52323.59;5134265;27;20200;-80
2024/01/23 04:37:54;;;;;;;5.17;1.60;;;;;;;-145.69;59.87;52333.47;5133740;27;20201;-80
2024/01/23 04:40:22;;;;;;;8.17;2.23;;;;;;;-145.69;59.72;52337.44;5133906;27;20204;-80
2024/01/23 04:42:50;;;;;;;9.07;1.33;;;;;;;-145.69;59.93;52353.28;5133780;27;20200;-80
2024/01/23 04:45:16;;;;;;;14.43;1.60;;;;;;;-145.69;60.74;52365.16;5134201;27;20192;-80
2024/01/23 04:47:43;;;;;;;11.83;1.70;;;;;;;-145.69;61.13;52353.28;5133022;27;20196;-80
2024/01/23 04:50:10;;;;;;;9.83;1.50;;;;;;;-145.69;61.30;52339.44;5133809;27;20219;-80
2024/01/23 04:52:35;;;;;;;8.47;1.63;;;;;;;-145.69;60.96;52335.47;5133823;27;20231;-80
2024/01/23 04:55:02;;;;;;;10.63;2.00;;;;;;;-145.69;61.77;52321.59;5133915;27;20197;-81
2024/01/23 04:57:31;;;;;;;11.07;1.97;;;;;;;-145.69;61.47;52313.69;5133564;27;20216;-80
2024/01/23 04:59:59;;;;;;;14.73;2.67;;;;;;;-145.69;61.36;52317.66;5133656;27;20193;-78
2024/01/23 05:02:26;;;;;;;14.07;2.70;;;;;;;-145.69;60.86;52339.44;5133330;27;20189;-82
2024/01/23 05:04:53;;;;;;;16.73;2.60;;;;;;;-145.69;60.24;52301.81;5134024;27;20228;-79
2024/01/23 05:07:20;;;;;;;10.27;1.80;;;;;;;-145.69;60.26;52313.69;5132977;27;20199;-80
2024/01/23 05:09:46;;;;;;;10.93;2.20;;;;;;;-145.69;59.65;52301.81;5133112;27;20228;-79
2024/01/23 05:12:12;;;;;;;7.53;1.70;;;;;;;-145.69;59.55;52291.91;5132426;27;20204;-79
2024/01/23 05:14:39;;;;;;;14.47;2.17;;;;;;;-145.69;58.76;52307.75;5132713;27;20195;-80
2024/01/23 05:17:07;;;;;;;11.70;1.80;;;;;;;-145.69;58.51;52329.53;5133391;27;20219;-79
2024/01/23 05:19:33;;;;;;;8.83;1.80;;;;;;;-145.69;59.02;52309.72;5133475;27;20228;-80
2024/01/23 05:22:00;;;;;;;8.77;1.73;;;;;;;-145.69;58.96;52333.47;5133749;27;20641;-79
2024/01/23 05:24:27;;;;;;;7.53;1.83;;;;;;;-145.69;58.13;52305.75;5133347;27;20200;-81
2024/01/23 05:26:53;;;;;;;11.37;1.60;;;;;;;-145.69;58.48;52325.56;5133108;27;20702;-80
2024/01/23 05:29:20;;;;;;;6.70;2.03;;;;;;;-145.69;59.04;52341.41;5133715;28;20204;-81
2024/01/23 05:31:46;;;;;;;7.33;1.93;;;;;;;-145.69;58.43;52313.69;5133413;27;20196;-80
2024/01/23 05:34:14;;;;;;;6.17;2.17;;;;;;;-145.69;58.29;52315.66;5132852;28;20224;-81
2024/01/23 05:36:40;;;;;;;9.23;1.83;;;;;;;-145.69;58.13;52285.97;5133385;27;20197;-81
2024/01/23 05:39:07;;;;;;;8.10;2.40;;;;;;;-145.69;58.48;52377.06;5132930;27;20201;-80
2024/01/23 05:41:33;;;;;;;14.33;2.70;;;;;;;-145.69;59.01;52307.75;5133324;27;20203;-79
2024/01/23 05:44:00;;;;;;;7.00;1.20;;;;;;;-145.69;59.33;52351.31;5133061;27;20204;-80
2024/01/23 05:46:27;;;;;;;7.93;1.90;;;;;;;-145.69;59.13;52307.75;5136231;27;20200;-80
2024/01/23 05:48:53;;;;;;;10.03;2.00;;;;;;;-145.69;58.59;52301.81;5137262;27;20228;-80
2024/01/23 05:51:21;;;;;;;7.63;2.37;;;;;;;-145.69;58.53;52313.69;5136792;27;20200;-80
2024/01/23 05:53:47;;;;;;;15.57;2.43;;;;;;;-145.69;58.36;52321.59;5136871;27;20224;-81
2024/01/23 05:56:14;;;;;;;21.20;5.57;;;;;;;-145.69;59.07;52285.97;5136847;27;20211;-81
2024/01/23 05:58:42;;;;;;;19.37;3.90;;;;;;;-145.69;58.13;52325.56;5137234;27;20196;-80
2024/01/23 06:01:09;;;;;;;14.10;2.17;;;;;;;-145.69;58.76;52329.53;5137116;27;20235;-81
2024/01/23 06:03:35;;;;;;;10.43;2.57;;;;;;;-145.69;58.61;52313.69;5137034;27;20200;-80
2024/01/23 06:06:02;;;;;;;4.83;2.07;;;;;;;-145.69;58.67;52317.66;5136894;27;20539;-79
2024/01/23 06:08:30;;;;;;;5.50;1.80;;;;;;;-145.69;58.76;52323.59;5136817;27;20639;-80
2024/01/23 06:10:56;;;;;;;8.20;1.63;;;;;;;-145.69;57.91;52357.25;5136433;27;20197;-81
2024/01/23 06:13:23;;;;;;;7.13;1.63;;;;;;;-145.69;57.32;52299.81;5136773;27;20232;-81
2024/01/23 06:15:49;;;;;;;9.67;1.90;;;;;;;-145.69;57.28;52325.56;5119107;27;20204;-81
2024/01/23 06:18:16;;;;;;;12.70;1.60;;;;;;;-145.69;56.88;52317.66;5126264;27;20559;-80
2024/01/23 06:20:43;;;;;;;9.07;1.70;;;;;;;-145.69;56.00;52301.81;5136917;27;20223;-80
2024/01/23 06:23:09;;;;;;;7.60;1.70;;;;;;;-145.69;55.89;52297.84;5136583;27;20230;-80
2024/01/23 06:25:37;;;;;;;12.30;3.20;;;;;;;-145.69;56.22;52287.94;5136889;27;20200;-81
2024/01/23 06:28:04;;;;;;;12.17;2.03;;;;;;;-145.69;56.34;52331.50;5136282;27;20596;-80
2024/01/23 06:30:30;;;;;;;10.40;2.20;;;;;;;-145.69;55.92;52289.91;5136142;27;20197;-81
2024/01/23 06:32:57;;;;;;;14.10;2.30;;;;;;;-145.69;55.57;52307.75;5136396;27;20225;-81
2024/01/23 06:35:24;;;;;;;8.17;2.10;;;;;;;-145.69;55.92;52313.69;5135796;27;20199;-80
2024/01/23 06:37:50;;;;;;;5.77;1.47;;;;;;;-145.69;55.58;52289.91;5136700;27;20208;-80
2024/01/23 06:40:17;;;;;;;6.60;1.37;;;;;;;-145.69;55.94;52373.09;5135871;27;20212;-80
2024/01/23 06:42:44;;;;;;;7.20;2.00;;;;;;;-145.69;55.72;52301.81;5136128;27;20193;-81
2024/01/23 06:45:11;;;;;;;8.70;1.43;;;;;;;-145.69;54.80;52333.47;5135757;27;20756;-80
2024/01/23 06:47:37;;;;;;;5.53;1.40;;;;;;;-145.69;54.62;52299.81;5135452;27;20204;-80
2024/01/23 06:50:04;;;;;;;11.90;1.77;;;;;;;-145.69;54.43;52313.69;5136280;27;20222;-80
2024/01/23 06:52:31;;;;;;;13.50;1.63;;;;;;;-145.69;55.15;52321.59;5135990;27;20197;-81
2024/01/23 06:54:57;;;;;;;9.67;1.63;;;;;;;-145.69;54.84;52309.72;5135584;27;20576;-81
2024/01/23 06:57:24;;;;;;;5.60;1.57;;;;;;;-145.69;55.92;52301.81;5134867;27;20201;-81
2024/01/23 06:59:52;;;;;;;4.53;1.40;;;;;;;-145.69;56.40;52305.75;5135342;27;20196;-80
2024/01/23 07:02:18;;;;;;;10.30;1.60;;;;;;;-145.69;57.03;52274.06;5135471;27;20197;-81
2024/01/23 07:04:44;;;;;;;4.70;1.70;;;;;;;-145.69;58.85;52305.75;5135335;27;20199;-80
2024/01/23 07:07:11;;;;;;;7.33;1.73;;;;;;;-145.69;58.53;52313.69;5135843;27;20208;-80
2024/01/23 07:09:37;;;;;;;8.87;1.97;;;;;;;-145.69;59.34;52307.75;5135644;27;20201;-80
2024/01/23 07:12:04;;;;;;;10.03;1.70;;;;;;;-145.69;59.91;52282.00;5135883;27;20250;-80
2024/01/23 07:14:31;;;;;;;6.07;1.50;;;;;;;-145.69;59.36;52333.47;5135113;27;20737;-80
2024/01/23 07:16:59;;;;;;;8.03;1.73;;;;;;;-145.69;60.08;52285.97;5135434;27;20197;-80
2024/01/23 07:19:25;;;;;;;8.33;1.87;;;;;;;-145.69;60.75;52285.97;5135634;27;20208;-79
2024/01/23 07:21:51;;;;;;;13.40;2.07;;;;;;;-145.69;60.76;52301.81;5135660;27;20294;-81
2024/01/23 07:24:18;;;;;;;9.33;2.70;;;;;;;-145.69;60.66;52305.75;5135293;27;20204;-81
2024/01/23 07:26:45;;;;;;;7.57;1.73;;;;;;;-145.69;60.61;52345.38;5135258;27;20193;-81
2024/01/23 07:29:11;;;;;;;6.03;1.40;;;;;;;-145.69;61.56;52341.41;5135339;27;20849;-82
2024/01/23 07:31:39;;;;;;;12.80;1.80;;;;;;;-145.69;60.99;52315.66;5135367;27;20192;-81
2024/01/23 07:34:07;;;;;;;6.57;1.77;;;;;;;-145.69;61.14;52327.53;5134793;27;20220;-80
2024/01/23 07:36:33;;;;;;;12.73;2.30;;;;;;;-145.69;61.62;52333.47;5135282;27;20560;-81
2024/01/23 07:39:00;;;;;;;12.23;2.10;;;;;;;-145.69;61.09;52333.47;5135390;27;20200;-80
2024/01/23 07:41:26;;;;;;;14.53;2.00;;;;;;;-145.69;61.99;52309.72;5135069;27;20540;-81
2024/01/23 07:43:52;;;;;;;6.73;1.83;;;;;;;-145.69;62.04;52315.66;5135152;27;20189;-81
2024/01/23 07:46:21;;;;;;;11.63;2.13;;;;;;;-145.69;62.21;52287.94;5134489;27;20409;-80
2024/01/23 07:48:47;;;;;;;6.90;1.60;;;;;;;-145.69;62.81;52317.66;5134704;27;20231;-81
2024/01/23 07:51:15;;;;;;;11.20;1.43;;;;;;;-145.69;62.45;52309.72;5134778;27;20208;-81
2024/01/23 07:53:43;;;;;;;11.90;2.03;;;;;;;-145.69;62.71;52297.84;5134450;27;20220;-81
2024/01/23 07:56:10;;;;;;;5.80;1.73;;;;;;;-145.69;62.77;52309.72;5135074;27;20227;-81
2024/01/23 07:58:36;;;;;;;5.43;1.53;;;;;;;-145.69;63.09;52321.59;5135105;27;20227;-81
2024/01/23 08:01:03;;;;;;;7.13;1.47;;;;;;;-145.69;63.56;52325.56;5134830;27;20208;-80
2024/01/23 08:03:30;;;;;;;4.70;1.67;;;;;;;-145.69;63.61;52301.81;5134794;27;20674;-81
2024/01/23 08:05:57;;;;;;;5.17;1.80;;;;;;;-145.69;63.20;52317.66;5131111;27;20201;-82
2024/01/23 08:08:25;;;;;;;5.57;2.10;;;;;;;-145.69;63.78;52321.59;5114666;28;20201;-81
2024/01/23 08:10:52;;;;;;;3.67;1.40;;;;;;;-145.69;63.03;52305.75;5115333;28;20208;-81
2024/01/23 08:13:20;;;;;;;3.40;2.23;;;;;;;-145.69;62.74;52333.47;5135277;27;20200;-81
2024/01/23 08:15:47;;;;;;;5.83;1.20;;;;;;;-145.69;62.89;52329.53;5135395;27;20193;-81
2024/01/23 08:18:14;;;;;;;5.07;1.47;;;;;;;-145.69;62.67;52321.59;5135851;27;20255;-81
2024/01/23 08:20:40;;;;;;;8.80;1.90;;;;;;;-145.69;61.78;52317.66;5135270;27;20205;-81
2024/01/23 08:23:07;;;;;;;2.87;1.40;;;;;;;-145.69;61.97;52283.97;5134523;27;20578;-80
2024/01/23 08:25:34;;;;;;;2.77;1.33;;;;;;;-145.69;61.56;52283.97;5134719;27;20659;-80
2024/01/23 08:28:00;;;;;;;5.47;1.30;;;;;;;-145.69;61.32;52311.69;5135633;27;20197;-81
2024/01/23 08:30:27;;;;;;;8.23;1.30;;;;;;;-145.69;61.59;52313.69;5134215;27;20200;-80
2024/01/23 08:32:53;;;;;;;4.80;1.30;;;;;;;-145.69;61.96;52317.66;5134193;27;20555;-81
2024/01/23 08:35:20;;;;;;;6.93;1.50;;;;;;;-145.69;61.69;52317.66;5133958;27;20224;-80
2024/01/23 08:37:46;;;;;;;8.47;1.30;;;;;;;-145.69;61.03;52303.78;5133777;27;20289;-80
2024/01/23 08:40:15;;;;;;;6.50;1.53;;;;;;;-145.69;61.43;52325.56;5133842;27;20204;-78
2024/01/23 08:42:42;;;;;;;9.70;2.10;;;;;;;-145.69;61.53;52347.34;5134000;27;20295;-80
2024/01/23 08:45:09;;;;;;;2.67;1.37;;;;;;;-145.69;62.31;52325.56;5133383;27;20204;-80
2024/01/23 08:47:35;;;;;;;4.73;1.50;;;;;;;-145.69;62.94;52317.66;5134011;27;20200;-80
2024/01/23 08:50:03;;;;;;;4.83;1.67;;;;;;;-145.69;63.76;52341.41;5134197;27;20200;-79
2024/01/23 08:52:30;;;;;;;8.20;2.67;;;;;;;-145.69;64.00;52295.84;5133301;27;20677;-80
2024/01/23 08:54:56;;;;;;;10.55;2.45;;;;;;;-145.69;64.31;52343.38;5133130;27;20457;-80
2024/01/23 08:57:23;;;;;;;8.73;2.03;;;;;;;-145.69;63.43;52341.41;5133871;27;20253;-81
2024/01/23 08:59:51;;;;;;;9.43;2.37;;;;;;;-145.69;62.94;52297.84;5133517;27;20211;-80
2024/01/23 09:02:17;;;;;;;7.90;2.57;;;;;;;-145.69;62.97;52303.78;5133420;27;20666;-80
2024/01/23 09:04:44;;;;;;;6.00;1.97;;;;;;;-145.69;62.53;52329.53;5133257;27;20199;-79
2024/01/23 09:07:10;;;;;;;6.23;2.00;;;;;;;-145.69;62.23;52301.81;5132869;27;20193;-79
2024/01/23 09:09:37;;;;;;;6.80;1.70;;;;;;;-145.69;60.69;52319.63;5133571;27;20283;-80
2024/01/23 09:12:04;;;;;;;12.70;2.27;;;;;;;-145.69;59.91;52287.94;5133901;27;20197;-80
2024/01/23 09:14:30;;;;;;;7.90;2.00;;;;;;;-145.69;58.72;52280.00;5131930;27;20295;-79
2024/01/23 09:16:58;;;;;;;10.03;2.07;;;;;;;-145.69;58.35;52285.97;5133110;27;20197;-80
2024/01/23 09:19:25;;;;;;;8.93;1.97;;;;;;;-145.69;57.57;52266.16;5133216;27;20193;-80
2024/01/23 09:21:52;;;;;;;10.87;1.97;;;;;;;-145.69;57.14;52305.75;5133136;28;20279;-80
2024/01/23 09:24:18;;;;;;;8.20;1.73;;;;;;;-145.69;56.80;52282.00;5132869;27;20211;-80
2024/01/23 09:26:45;;;;;;;8.30;1.60;;;;;;;-145.69;57.20;52297.84;5133374;27;20204;-81
2024/01/23 09:29:11;;;;;;;8.77;1.70;;;;;;;-145.69;56.98;52282.00;5133392;27;20208;-81
2024/01/23 09:31:44;;;;;;;10.70;1.50;;;;;;;-145.69;56.64;52297.84;5132601;27;20219;-80
2024/01/23 09:34:12;;;;;;;6.77;1.60;;;;;;;-145.69;56.31;52325.56;5133039;28;20231;-78
2024/01/23 09:36:38;;;;;;;5.80;1.80;;;;;;;-145.69;56.81;52301.81;5132961;27;20196;-78
2024/01/23 09:39:05;;;;;;;7.80;2.10;;;;;;;-145.69;56.43;52297.84;5131053;27;20217;-78
2024/01/23 09:41:35;;;;;;;2.17;1.03;;;;;;;-145.69;56.23;52274.06;5120419;27;20205;-78
2024/01/23 09:44:02;;;;;;;10.07;1.67;;;;;;;-145.69;56.49;52266.16;5132761;27;20207;-78
2024/01/23 09:46:29;;;;;;;4.60;1.43;;;;;;;-145.69;56.84;52282.00;5133578;28;20196;-77
2024/01/23 09:48:59;;;;;;;4.23;1.53;;;;;;;-145.69;56.27;52289.91;5132344;27;20579;-78
2024/01/23 09:51:27;;;;;;;5.70;1.50;;;;;;;-145.69;56.86;52303.78;5133504;27;20201;-77
2024/01/23 09:53:54;;;;;;;7.80;1.70;;;;;;;-145.69;56.54;52313.69;5133027;27;20220;-77
2024/01/23 09:56:22;;;;;;;9.70;1.60;;;;;;;-145.69;56.85;52305.75;5132470;27;20197;-78
2024/01/23 09:58:49;;;;;;;11.07;1.80;;;;;;;-145.69;55.94;52285.97;5132860;27;20605;-77
2024/01/23 10:01:17;;;;;;;7.33;2.00;;;;;;;-145.69;54.71;52291.91;5130119;27;20196;-78
2024/01/23 10:03:48;;;;;;;5.33;1.40;;;;;;;-145.69;54.25;52266.16;5112541;28;20695;-79
2024/01/23 10:06:15;;;;;;;10.27;2.17;;;;;;;-145.69;54.10;52287.94;5132616;27;20196;-78
2024/01/23 10:08:43;;;;;;;7.47;1.53;;;;;;;-145.69;52.80;52285.97;5133169;28;20204;-78
2024/01/23 10:11:10;;;;;;;4.83;1.23;;;;;;;-145.69;52.40;52282.00;5136265;27;20274;-80
2024/01/23 10:13:38;;;;;;;4.53;1.77;;;;;;;-145.69;52.11;52248.34;5133451;27;20262;-79
2024/01/23 10:16:05;;;;;;;12.57;3.80;;;;;;;-145.69;52.35;52289.91;5132400;28;20649;-79
2024/01/23 10:18:32;;;;;;;7.57;1.90;;;;;;;-145.69;51.66;52262.19;5133210;27;20201;-81
2024/01/23 10:20:59;;;;;;;10.87;2.23;;;;;;;-145.69;52.70;52266.16;5133180;27;20204;-81
2024/01/23 10:23:26;;;;;;;7.90;1.90;;;;;;;-145.69;52.52;52289.91;5133034;28;20196;-81
2024/01/23 10:25:54;;;;;;;9.43;1.93;;;;;;;-145.69;53.40;52282.00;5132614;27;20203;-81
2024/01/23 10:28:23;;;;;;;7.23;2.20;;;;;;;-145.69;52.74;52305.75;5133297;27;20209;-81
2024/01/23 10:30:49;;;;;;;12.70;1.93;;;;;;;-145.69;53.73;52250.31;5133124;27;20232;-79
2024/01/23 10:33:16;;;;;;;8.67;1.40;;;;;;;-145.69;53.00;52254.28;5136829;27;20240;-81
2024/01/23 10:35:43;;;;;;;8.67;1.73;;;;;;;-145.69;52.58;52278.03;5135952;27;20693;-80
2024/01/23 10:38:14;;;;;;;7.47;1.97;;;;;;;-145.69;52.44;52278.03;5136703;27;20212;-80
2024/01/23 10:40:41;;;;;;;9.73;1.80;;;;;;;-145.69;52.34;52285.97;5147353;27;20204;-80
2024/01/23 10:43:13;;;;;;;10.27;1.50;;;;;;;-145.69;52.20;52280.00;5157496;27;20204;-81
2024/01/23 10:45:40;;;;;;;15.03;3.53;;;;;;;-145.69;53.21;52285.97;5140484;27;20627;-80
2024/01/23 10:48:08;;;;;;;5.77;1.73;;;;;;;-145.69;53.17;52282.00;5136508;27;20217;-80
2024/01/23 10:50:35;;;;;;;8.03;1.80;;;;;;;-145.69;54.10;52270.13;5136531;27;20693;-79
2024/01/23 10:53:07;;;;;;;8.80;1.47;;;;;;;-145.69;54.28;52297.84;5136693;27;20590;-79
2024/01/23 10:55:39;;;;;;;7.00;1.77;;;;;;;-145.69;54.40;52282.00;5135549;27;20685;-80
2024/01/23 10:58:19;;;;;;;7.07;1.73;;;;;;;-145.69;54.41;52301.81;5136008;27;20192;-80
2024/01/23 11:01:01;;;;;;;7.53;1.73;;;;;;;-145.69;54.23;52285.97;5136412;27;20551;-81
2024/01/23 11:03:27;;;;;;;5.53;1.40;;;;;;;-145.69;54.71;52289.91;5136427;27;20203;-80
2024/01/23 11:05:58;;;;;;;11.50;1.50;;;;;;;-145.69;55.27;52272.09;5135650;27;20209;-79
2024/01/23 11:08:28;;;;;;;7.97;1.77;;;;;;;-145.69;54.40;52283.97;5136032;27;20228;-81
2024/01/23 11:11:00;;;;;;;14.47;2.27;;;;;;;-145.69;53.41;52262.19;5148763;27;20204;-81
2024/01/23 11:13:38;;;;;;;5.17;1.50;;;;;;;-145.69;53.10;52278.03;5138275;27;20242;-81